Time;durP1;ratioP1;P1;durP2;ratioP2;P2;SDS_P1;SDS_P2;PMS_P1;PMS_P2;Temp;Humidity;BMP_temperature;BMP_pressure;BME280_temperature;BME280_humidity;BME280_pressure;Samples;Min_cycle;Max_cycle;Signal;HPM_P1;HPM_P2
2021/04/24 00:00:56;;;;;;;14.83;6.80;;;;;;;2.34;62.08;100722.02;147767;1147;104570;-79
2021/04/24 00:04:00;;;;;;;13.50;6.83;;;;;;;2.34;62.40;100724.66;147727;1147;104548;-76
2021/04/24 00:07:04;;;;;;;53.87;23.73;;;;;;;2.33;62.41;100724.77;147762;1147;104652;-78
2021/04/24 00:10:09;;;;;;;118.17;50.48;;;;;;;2.31;62.13;100722.22;147746;1148;104571;-84
2021/04/24 00:13:14;;;;;;;61.57;23.83;;;;;;;2.30;62.58;100725.77;147795;1148;104501;-78
2021/04/24 00:16:17;;;;;;;28.20;10.70;;;;;;;2.32;62.05;100731.80;147787;1147;104574;-77
2021/04/24 00:19:20;;;;;;;24.02;8.33;;;;;;;2.34;61.92;100722.02;147691;1147;104572;-78
2021/04/24 00:22:24;;;;;;;24.20;7.70;;;;;;;2.34;62.86;100719.39;147303;1147;104530;-79
2021/04/24 00:25:27;;;;;;;44.40;17.92;;;;;;;2.37;61.85;100726.28;147209;1147;104576;-79
2021/04/24 00:28:30;;;;;;;90.30;47.67;;;;;;;2.35;62.39;100718.47;147302;1147;104467;-80
2021/04/24 00:31:33;;;;;;;52.10;21.50;;;;;;;2.35;61.64;100718.47;147310;1147;104501;-78
2021/04/24 00:34:36;;;;;;;35.60;11.75;;;;;;;2.36;62.65;100728.05;147267;1147;104573;-77
2021/04/24 00:37:40;;;;;;;19.32;8.20;;;;;;;2.39;61.18;100726.17;147675;1147;104660;-75
2021/04/24 00:40:43;;;;;;;14.23;6.77;;;;;;;2.40;61.74;100723.45;147441;1147;104490;-77
2021/04/24 00:48:03;;;;;;;35.40;17.30;;;;;;;2.40;62.03;100717.34;147768;1147;104560;-79
2021/04/24 00:51:07;;;;;;;22.73;8.70;;;;;;;2.38;62.06;100727.12;147757;1147;104620;-82
2021/04/24 00:54:10;;;;;;;15.20;6.65;;;;;;;2.38;60.89;100735.02;147758;1147;104488;-81
2021/04/24 00:57:14;;;;;;;11.75;5.55;;;;;;;2.39;62.07;100731.44;147711;1147;104450;-80
2021/04/24 01:00:22;;;;;;;12.90;6.05;;;;;;;2.41;61.48;100732.22;147751;1147;104613;-78
2021/04/24 01:03:25;;;;;;;13.98;6.22;;;;;;;2.39;60.23;100739.34;147808;1148;104523;-76
2021/04/24 01:06:28;;;;;;;22.05;12.25;;;;;;;2.39;61.36;100740.21;147686;1147;104608;-77
2021/04/24 01:09:32;;;;;;;22.52;8.30;;;;;;;2.38;60.44;100729.76;147598;1147;104534;-78
2021/04/24 01:12:36;;;;;;;15.10;5.92;;;;;;;2.42;60.61;100734.74;147761;1147;104471;-76
2021/04/24 01:15:39;;;;;;;13.78;5.95;;;;;;;2.41;60.84;100733.06;147579;1147;104559;-80
2021/04/24 01:18:42;;;;;;;10.88;5.47;;;;;;;2.42;61.26;100733.91;147792;1148;104551;-76
2021/04/24 01:21:47;;;;;;;13.85;6.67;;;;;;;2.42;59.98;100728.64;147872;1147;104479;-75
2021/04/24 01:24:50;;;;;;;23.65;14.60;;;;;;;2.40;61.34;100728.72;147412;1148;104537;-81
2021/04/24 01:27:56;;;;;;;18.10;7.70;;;;;;;2.42;61.26;100723.38;147267;1147;104563;-83
2021/04/24 01:30:59;;;;;;;11.97;5.67;;;;;;;2.39;60.73;100724.41;147553;1147;104453;-83
2021/04/24 01:34:04;;;;;;;11.15;5.28;;;;;;;2.40;60.96;100718.19;147713;1147;104471;-80
2021/04/24 01:37:07;;;;;;;11.15;5.05;;;;;;;2.41;60.02;100713.79;147354;1147;104806;-86
2021/04/24 01:40:15;;;;;;;11.45;4.83;;;;;;;2.37;60.31;100705.22;147528;1147;104457;-78
2021/04/24 01:43:18;;;;;;;14.87;5.72;;;;;;;2.34;61.04;100710.65;147749;1147;104976;-80
2021/04/24 01:46:22;;;;;;;13.60;7.70;;;;;;;2.33;60.01;100708.97;147722;1147;104614;-78
2021/04/24 01:49:25;;;;;;;16.20;9.38;;;;;;;2.33;60.24;100708.97;147767;1147;104508;-77
2021/04/24 01:52:36;;;;;;;13.72;5.90;;;;;;;2.31;60.33;100709.05;147768;1147;104630;-77
2021/04/24 01:55:42;;;;;;;10.68;5.15;;;;;;;2.34;59.69;100706.22;147832;1147;104569;-79
2021/04/24 01:58:45;;;;;;;12.37;5.03;;;;;;;2.33;60.24;100715.08;147416;1148;104505;-79
2021/04/24 02:01:50;;;;;;;13.28;5.95;;;;;;;2.30;59.87;100704.70;147601;1147;104554;-76
2021/04/24 02:04:54;;;;;;;11.15;5.95;;;;;;;2.29;60.11;100710.05;147783;1147;104577;-77
2021/04/24 02:07:59;;;;;;;14.00;8.40;;;;;;;2.28;60.22;100713.64;147742;1146;104514;-80
2021/04/24 02:11:03;;;;;;;14.83;5.40;;;;;;;2.27;60.11;100718.07;147803;1147;104531;-75
2021/04/24 02:14:07;;;;;;;12.23;5.22;;;;;;;2.27;60.59;100706.66;147775;1147;104550;-75
2021/04/24 02:17:12;;;;;;;13.98;5.40;;;;;;;2.29;59.87;100716.20;147663;1147;104572;-77
2021/04/24 02:20:17;;;;;;;13.83;5.92;;;;;;;2.29;59.47;100710.92;147711;1148;104809;-78
2021/04/24 02:23:22;;;;;;;15.15;8.23;;;;;;;2.30;59.86;100714.40;147470;1147;104520;-75
2021/04/24 02:26:25;;;;;;;14.28;5.95;;;;;;;2.30;59.51;100715.23;147598;1148;104563;-76
2021/04/24 02:29:28;;;;;;;20.15;5.87;;;;;;;2.29;59.92;100713.56;147252;1147;104450;-76
2021/04/24 02:32:32;;;;;;;14.13;5.33;;;;;;;2.28;58.74;100718.91;147577;1147;104575;-73
2021/04/24 02:35:43;;;;;;;11.28;4.95;;;;;;;2.27;59.95;100719.83;147323;1147;104572;-78
2021/04/24 02:38:52;;;;;;;10.00;5.75;;;;;;;2.25;59.33;100722.58;147770;1147;104591;-77
2021/04/24 02:41:55;;;;;;;13.78;8.53;;;;;;;2.24;58.93;100718.23;147767;1147;104519;-76
2021/04/24 02:45:05;;;;;;;12.65;5.53;;;;;;;2.24;59.43;100712.13;147735;1147;104387;-79
2021/04/24 02:48:10;;;;;;;11.40;4.87;;;;;;;2.21;58.94;100707.87;147721;1147;104480;-81
2021/04/24 02:51:13;;;;;;;13.83;5.40;;;;;;;2.21;59.29;100702.59;147705;1147;104570;-79
2021/04/24 02:54:16;;;;;;;11.08;4.90;;;;;;;2.21;60.00;100699.97;147731;1146;104572;-76
2021/04/24 02:57:19;;;;;;;11.93;5.62;;;;;;;2.21;59.10;100699.13;147480;1147;104575;-74
2021/04/24 03:00:24;;;;;;;14.28;4.65;;;;;;;2.19;59.67;100693.10;147728;1147;104464;-75
2021/04/24 03:03:28;;;;;;;11.57;4.87;;;;;;;2.18;59.98;100700.16;147575;1147;104492;-75
2021/04/24 03:06:31;;;;;;;7.37;4.05;;;;;;;2.16;59.54;100691.50;147727;1147;104578;-76
2021/04/24 03:09:34;;;;;;;10.20;4.78;;;;;;;2.18;58.86;100699.33;147355;1147;104624;-76
2021/04/24 03:12:37;;;;;;;11.97;6.35;;;;;;;2.17;59.84;100682.66;147770;1147;104568;-80
2021/04/24 03:15:40;;;;;;;8.50;4.62;;;;;;;2.14;59.53;100682.85;147726;1146;104563;-80
2021/04/24 03:18:44;;;;;;;9.10;4.53;;;;;;;2.10;59.58;100684.81;147232;1148;104490;-77
2021/04/24 03:21:47;;;;;;;11.12;5.30;;;;;;;2.07;59.50;100692.87;147419;1147;104490;-77
2021/04/24 03:24:50;;;;;;;7.67;3.98;;;;;;;2.06;59.69;100687.69;147701;1147;104611;-76
2021/04/24 03:27:53;;;;;;;10.18;5.10;;;;;;;2.06;59.59;100690.31;147628;1147;104443;-76
2021/04/24 03:30:56;;;;;;;8.25;3.80;;;;;;;2.05;59.20;100692.11;147665;1147;104895;-74
2021/04/24 03:34:00;;;;;;;9.05;3.83;;;;;;;2.06;59.95;100695.58;147429;1147;104861;-75
2021/04/24 03:37:03;;;;;;;10.57;4.40;;;;;;;2.07;59.96;100687.60;147413;1147;104572;-75
2021/04/24 03:40:09;;;;;;;11.60;4.70;;;;;;;2.12;59.01;100698.73;147219;1147;104624;-76
2021/04/24 03:43:12;;;;;;;10.80;6.13;;;;;;;2.20;59.64;100700.92;147301;1147;104481;-75
2021/04/24 03:46:15;;;;;;;12.73;4.72;;;;;;;2.26;58.88;100705.83;147425;1148;104553;-74
2021/04/24 03:49:18;;;;;;;8.23;4.33;;;;;;;2.34;59.29;100706.22;147522;1147;104569;-74
2021/04/24 03:52:21;;;;;;;107.97;59.20;;;;;;;2.43;59.52;100710.12;147725;1147;105994;-75
2021/04/24 03:55:25;;;;;;;64.72;31.55;;;;;;;2.55;59.05;100719.08;147670;1147;104574;-74
2021/04/24 03:58:28;;;;;;;85.17;42.55;;;;;;;2.68;58.31;100720.05;147608;1147;104575;-77
2021/04/24 04:01:31;;;;;;;22.23;8.87;;;;;;;2.84;58.83;100713.88;147711;1147;104573;-79
2021/04/24 04:04:34;;;;;;;12.13;5.60;;;;;;;3.01;58.65;100708.42;147538;1148;104395;-76
2021/04/24 04:07:37;;;;;;;9.50;4.70;;;;;;;3.18;58.83;100711.83;147207;1147;104476;-74
2021/04/24 04:10:43;;;;;;;10.67;4.37;;;;;;;3.34;58.25;100712.56;147221;1147;104901;-73
2021/04/24 04:13:46;;;;;;;9.93;4.77;;;;;;;3.44;57.55;100713.67;147357;1147;104831;-78
2021/04/24 04:16:49;;;;;;;7.75;4.08;;;;;;;3.58;58.20;100709.33;147475;1147;104483;-78
2021/04/24 04:19:52;;;;;;;9.90;4.45;;;;;;;3.70;57.23;100713.84;147214;1147;104484;-76
2021/04/24 04:22:55;;;;;;;8.38;4.45;;;;;;;3.85;57.90;100718.14;147774;1147;105004;-79
2021/04/24 04:25:59;;;;;;;10.25;6.22;;;;;;;4.06;58.29;100710.63;147525;1147;104589;-78
2021/04/24 04:29:03;;;;;;;9.33;5.28;;;;;;;4.31;57.87;100715.14;147322;1147;104486;-80
2021/04/24 04:32:06;;;;;;;13.45;7.25;;;;;;;4.41;56.75;100719.83;147471;1147;104577;-77
2021/04/24 04:35:12;;;;;;;11.40;6.47;;;;;;;4.47;56.93;100719.41;147233;1147;104576;-77
2021/04/24 04:38:16;;;;;;;12.68;6.10;;;;;;;4.51;57.68;100726.18;147504;1147;104973;-77
2021/04/24 04:41:19;;;;;;;11.07;4.43;;;;;;;4.63;57.13;100720.06;147577;1147;104596;-78
2021/04/24 04:44:22;;;;;;;10.65;4.37;;;;;;;4.76;56.88;100713.96;147313;1147;104525;-76
2021/04/24 04:47:26;;;;;;;11.63;4.67;;;;;;;4.91;56.23;100715.56;147480;1147;104915;-77
2021/04/24 04:50:31;;;;;;;15.00;5.73;;;;;;;4.98;57.12;100714.16;147706;1147;104572;-77
2021/04/24 04:53:35;;;;;;;11.90;6.30;;;;;;;5.12;57.33;100715.88;147742;1147;104594;-74
2021/04/24 04:56:38;;;;;;;10.13;4.95;;;;;;;5.20;56.87;100712.70;147282;1145;104559;-76
2021/04/24 04:59:41;;;;;;;9.13;4.30;;;;;;;5.24;56.31;100715.00;147256;1147;104546;-79
2021/04/24 05:02:45;;;;;;;11.30;5.30;;;;;;;5.31;56.71;100715.41;147636;1146;104578;-76
2021/04/24 05:05:49;;;;;;;19.12;12.35;;;;;;;5.39;56.31;100721.03;147268;1147;104529;-75
2021/04/24 05:08:52;;;;;;;13.37;5.37;;;;;;;5.48;56.34;100723.00;147275;1147;104576;-74
2021/04/24 05:11:55;;;;;;;7.67;3.80;;;;;;;5.51;55.70;100722.80;147232;1148;104537;-77
2021/04/24 05:14:58;;;;;;;9.80;4.27;;;;;;;5.55;55.84;100723.42;147442;1148;104550;-72
2021/04/24 05:18:01;;;;;;;10.75;4.97;;;;;;;5.62;55.51;100723.81;147221;1148;104484;-73
2021/04/24 05:21:05;;;;;;;11.40;4.20;;;;;;;5.67;55.54;100735.78;147359;1147;104565;-73
2021/04/24 05:24:10;;;;;;;7.60;3.65;;;;;;;5.80;55.71;100738.40;147392;1147;104487;-78
2021/04/24 05:27:13;;;;;;;14.25;5.53;;;;;;;5.84;55.41;100745.16;147333;1147;104558;-80
2021/04/24 05:30:19;;;;;;;9.00;4.70;;;;;;;5.85;55.06;100740.70;147416;1147;104462;-81
2021/04/24 05:33:22;;;;;;;8.90;4.47;;;;;;;5.79;53.91;100741.98;147406;1147;104496;-80
2021/04/24 05:36:26;;;;;;;8.00;4.10;;;;;;;5.69;55.46;100738.32;147600;1147;104878;-80
2021/04/24 05:39:31;;;;;;;7.03;3.92;;;;;;;5.72;55.90;100735.47;147582;1147;104485;-80
2021/04/24 05:42:34;;;;;;;7.75;4.22;;;;;;;5.79;55.64;100741.16;147552;1147;104631;-75
2021/04/24 05:45:37;;;;;;;11.88;5.58;;;;;;;5.93;55.44;100748.09;147778;1147;104483;-80
2021/04/24 05:48:41;;;;;;;12.47;5.60;;;;;;;6.04;55.13;100746.42;147700;1147;104482;-77
2021/04/24 05:51:44;;;;;;;11.60;6.28;;;;;;;6.16;55.30;100741.16;147480;1147;104955;-82
2021/04/24 05:54:47;;;;;;;10.13;5.10;;;;;;;6.18;55.60;100728.64;147748;1147;104451;-82
2021/04/24 05:57:50;;;;;;;10.43;4.70;;;;;;;6.33;54.34;100730.16;147482;1147;104571;-82
2021/04/24 06:00:53;;;;;;;8.93;4.77;;;;;;;6.34;55.70;100729.20;147525;1147;104544;-81
2021/04/24 06:03:57;;;;;;;7.65;3.85;;;;;;;6.36;55.85;100724.63;147536;1148;104575;-78
2021/04/24 06:07:01;;;;;;;10.80;5.50;;;;;;;6.27;55.02;100735.91;147550;1148;104482;-74
2021/04/24 06:10:09;;;;;;;9.45;4.10;;;;;;;6.33;54.35;100748.70;147698;1147;104576;-74
2021/04/24 06:13:12;;;;;;;12.15;5.62;;;;;;;6.32;55.39;100744.38;147801;1147;104579;-73
2021/04/24 06:16:15;;;;;;;7.33;4.37;;;;;;;6.45;54.83;100739.86;147459;1147;104484;-77
2021/04/24 06:19:18;;;;;;;9.03;4.53;;;;;;;6.62;55.81;100743.91;147526;1148;104484;-74
2021/04/24 06:22:21;;;;;;;7.83;4.53;;;;;;;6.71;56.07;100749.47;147278;1147;104497;-75
2021/04/24 06:25:25;;;;;;;7.95;4.37;;;;;;;6.83;55.84;100743.22;147403;1147;104474;-77
2021/04/24 06:28:28;;;;;;;7.37;4.37;;;;;;;7.00;55.00;100748.08;147445;1147;104609;-74
2021/04/24 06:31:31;;;;;;;7.90;4.00;;;;;;;7.19;54.63;100741.36;147497;1148;104579;-74
2021/04/24 06:34:34;;;;;;;7.65;4.20;;;;;;;7.26;55.01;100751.38;147748;1148;104484;-75
2021/04/24 06:37:39;;;;;;;6.25;3.67;;;;;;;7.35;55.42;100749.83;147686;1147;104553;-74
2021/04/24 06:40:42;;;;;;;10.00;3.98;;;;;;;7.36;55.72;100742.70;147775;1147;104548;-73
2021/04/24 06:43:45;;;;;;;6.93;3.73;;;;;;;7.40;55.32;100747.64;147758;1148;104559;-76
2021/04/24 06:46:49;;;;;;;6.62;4.25;;;;;;;7.38;55.26;100738.11;147754;1147;104570;-76
2021/04/24 06:49:53;;;;;;;5.65;3.70;;;;;;;7.45;55.91;100739.33;147591;1148;104712;-73
2021/04/24 06:52:56;;;;;;;7.72;4.40;;;;;;;7.51;56.07;100752.12;147722;1147;104870;-73
2021/04/24 06:55:59;;;;;;;6.40;3.92;;;;;;;7.49;56.29;100740.77;147746;1147;104500;-75
2021/04/24 06:59:02;;;;;;;8.33;4.03;;;;;;;7.63;56.94;100743.16;147715;1148;104610;-75
2021/04/24 07:02:08;;;;;;;7.67;4.03;;;;;;;7.75;56.07;100740.50;147746;1147;104470;-75
2021/04/24 07:05:14;;;;;;;6.92;3.75;;;;;;;7.84;56.17;100739.77;147733;1147;104492;-74
2021/04/24 07:08:17;;;;;;;6.03;3.35;;;;;;;7.78;56.05;100740.27;147776;1147;104478;-73
2021/04/24 07:11:20;;;;;;;6.75;3.40;;;;;;;7.73;57.20;100753.90;147491;1147;104561;-73
2021/04/24 07:14:23;;;;;;;8.28;4.97;;;;;;;7.75;57.54;100746.65;147535;1147;104569;-76
2021/04/24 07:17:26;;;;;;;11.25;4.40;;;;;;;7.83;57.51;100738.94;147653;1148;104889;-73
2021/04/24 07:20:30;;;;;;;7.20;3.80;;;;;;;7.86;56.89;100741.33;147529;1147;104557;-74
2021/04/24 07:23:36;;;;;;;5.55;2.98;;;;;;;7.78;55.47;100741.11;147528;1147;104895;-74
2021/04/24 07:26:40;;;;;;;5.17;2.90;;;;;;;7.50;56.00;100739.79;147553;1147;104556;-74
2021/04/24 07:29:44;;;;;;;8.40;3.40;;;;;;;7.28;56.23;100740.65;147749;1147;104637;-75
2021/04/24 07:32:48;;;;;;;12.28;6.87;;;;;;;7.27;57.45;100741.59;147347;1147;104565;-75
2021/04/24 07:35:51;;;;;;;6.60;2.90;;;;;;;7.37;56.75;100741.72;147365;1147;104447;-75
2021/04/24 07:38:55;;;;;;;7.57;3.53;;;;;;;7.46;57.59;100749.80;147515;1147;104559;-74
2021/04/24 07:41:58;;;;;;;6.28;2.92;;;;;;;7.54;57.24;100743.89;147331;1147;104558;-75
2021/04/24 07:45:01;;;;;;;6.00;2.80;;;;;;;7.46;56.69;100749.80;147204;1147;104650;-74
2021/04/24 07:48:06;;;;;;;5.00;2.70;;;;;;;7.38;57.38;100740.77;147428;1147;104473;-75
2021/04/24 07:51:09;;;;;;;6.22;3.25;;;;;;;7.41;57.55;100741.38;147229;1146;104569;-73
2021/04/24 07:54:13;;;;;;;6.15;3.02;;;;;;;7.54;58.13;100735.92;147540;1147;104492;-75
2021/04/24 07:57:17;;;;;;;6.93;2.73;;;;;;;7.69;57.03;100733.86;147691;1148;104556;-75
2021/04/24 08:00:21;;;;;;;5.12;3.02;;;;;;;7.85;57.17;100747.62;147359;1148;104572;-73
2021/04/24 08:03:24;;;;;;;7.47;3.95;;;;;;;7.91;57.31;100740.97;147394;1148;104519;-75
2021/04/24 08:06:27;;;;;;;9.25;4.80;;;;;;;8.09;57.12;100746.59;147545;1147;104569;-74
2021/04/24 08:09:30;;;;;;;7.33;3.10;;;;;;;8.35;56.68;100732.97;147198;1148;104914;-74
2021/04/24 08:12:34;;;;;;;7.90;3.27;;;;;;;8.53;56.24;100736.80;147256;1147;104483;-74
2021/04/24 08:15:37;;;;;;;5.55;3.10;;;;;;;8.79;56.09;100741.74;147292;1147;104505;-74
2021/04/24 08:18:40;;;;;;;6.53;3.70;;;;;;;9.01;56.02;100740.78;147471;1145;104509;-74
2021/04/24 08:21:44;;;;;;;6.10;3.87;;;;;;;9.16;55.94;100739.47;147361;1148;104849;-74
2021/04/24 08:24:47;;;;;;;8.83;3.58;;;;;;;9.32;55.56;100732.81;147218;1147;104479;-77
2021/04/24 08:27:50;;;;;;;7.55;3.15;;;;;;;9.49;54.82;100741.97;147292;1147;104465;-75
2021/04/24 08:30:53;;;;;;;7.90;3.30;;;;;;;9.49;54.09;100740.17;147211;1147;104729;-74
2021/04/24 08:33:57;;;;;;;6.78;3.27;;;;;;;9.27;51.48;100733.19;147238;1147;104658;-75
2021/04/24 08:37:00;;;;;;;5.90;3.13;;;;;;;9.31;52.70;100725.78;147603;1147;104447;-74
2021/04/24 08:40:05;;;;;;;9.93;5.00;;;;;;;9.38;54.05;100741.09;147300;1146;104572;-74
2021/04/24 08:43:08;;;;;;;9.08;4.22;;;;;;;9.63;53.19;100737.12;147743;1148;104533;-76
2021/04/24 08:46:16;;;;;;;6.72;3.30;;;;;;;9.57;53.30;100727.02;147747;1148;104643;-74
2021/04/24 08:49:21;;;;;;;5.90;3.27;;;;;;;9.44;53.63;100721.91;147482;1148;104572;-74
2021/04/24 08:52:25;;;;;;;4.97;3.20;;;;;;;9.34;52.07;100726.37;147226;1147;104454;-74
2021/04/24 08:55:31;;;;;;;5.93;3.27;;;;;;;9.47;54.25;100711.97;147246;1147;104572;-74
2021/04/24 08:58:34;;;;;;;8.20;4.15;;;;;;;9.75;53.15;100716.55;147215;1148;104573;-74
2021/04/24 09:01:37;;;;;;;11.10;5.95;;;;;;;9.69;53.02;100719.76;147378;1148;104583;-74
2021/04/24 09:04:41;;;;;;;7.45;3.83;;;;;;;9.67;53.62;100711.06;147283;1147;104558;-75
2021/04/24 09:07:45;;;;;;;5.08;3.30;;;;;;;9.96;52.00;100705.78;147211;1147;104562;-78
2021/04/24 09:10:48;;;;;;;5.83;3.50;;;;;;;10.16;52.77;100701.34;147345;1148;104803;-77
2021/04/24 09:14:03;;;;;;;7.10;4.00;;;;;;;10.31;52.46;100704.44;147678;1147;104557;-79
2021/04/24 09:17:06;;;;;;;9.90;7.53;;;;;;;10.47;52.47;100701.23;147746;1147;104617;-78
2021/04/24 09:20:11;;;;;;;7.50;3.70;;;;;;;10.65;51.93;100692.50;147765;1147;104569;-82
2021/04/24 09:23:16;;;;;;;6.17;3.50;;;;;;;10.74;51.09;100688.95;147799;1147;104439;-77
2021/04/24 09:26:23;;;;;;;6.70;3.93;;;;;;;10.68;51.72;100689.53;147403;1147;104572;-79
2021/04/24 09:29:29;;;;;;;5.33;3.55;;;;;;;10.70;50.06;100682.22;147355;1148;104495;-83
2021/04/24 09:32:32;;;;;;;7.80;3.90;;;;;;;10.84;51.92;100688.95;147713;1147;104556;-82
2021/04/24 09:35:48;;;;;;;6.90;3.95;;;;;;;10.94;51.33;100685.26;147701;1147;104566;-82
2021/04/24 09:38:53;;;;;;;6.45;4.00;;;;;;;11.05;51.18;100675.38;147676;1147;104432;-79
2021/04/24 09:41:56;;;;;;;6.55;3.30;;;;;;;11.34;50.29;100677.95;147835;1147;104486;-78
2021/04/24 09:44:59;;;;;;;4.20;2.77;;;;;;;11.49;50.12;100673.80;147786;1147;104678;-78
2021/04/24 09:48:03;;;;;;;6.37;2.85;;;;;;;11.55;50.71;100675.04;147727;1147;104590;-79
2021/04/24 09:51:15;;;;;;;6.83;3.20;;;;;;;11.60;46.83;100675.41;147804;1147;104627;-78
2021/04/24 09:54:19;;;;;;;4.67;3.02;;;;;;;11.50;49.02;100678.14;147788;1147;104614;-80
2021/04/24 09:57:22;;;;;;;7.55;4.45;;;;;;;11.19;49.55;100661.56;147737;1147;104484;-81
2021/04/24 10:00:29;;;;;;;4.22;3.00;;;;;;;11.15;49.16;100670.86;147566;1147;104569;-78
2021/04/24 10:03:38;;;;;;;8.30;3.37;;;;;;;11.16;48.89;100664.52;147197;1145;104588;-77
2021/04/24 10:06:42;;;;;;;7.90;3.57;;;;;;;11.13;47.71;100672.84;147708;1148;104566;-77
2021/04/24 10:09:46;;;;;;;5.78;3.42;;;;;;;10.99;47.09;100672.32;147718;1147;104480;-80
2021/04/24 10:12:59;;;;;;;4.55;3.05;;;;;;;10.92;48.67;100662.37;147770;1147;104565;-76
2021/04/24 10:16:02;;;;;;;8.95;3.33;;;;;;;11.12;47.13;100665.80;147831;1147;104492;-80
2021/04/24 10:19:07;;;;;;;6.67;3.87;;;;;;;11.26;45.89;100657.32;147755;1147;104716;-76
2021/04/24 10:22:13;;;;;;;4.40;2.42;;;;;;;11.21;46.14;100662.25;147931;1147;104592;-78
2021/04/24 10:25:16;;;;;;;11.45;6.55;;;;;;;11.26;46.76;100659.99;147755;1147;104938;-77
2021/04/24 10:28:21;;;;;;;6.65;2.92;;;;;;;11.57;46.58;100654.34;147774;1147;104476;-77
2021/04/24 10:31:24;;;;;;;6.05;3.37;;;;;;;11.81;44.24;100642.23;147744;1147;104475;-80
2021/04/24 10:34:27;;;;;;;7.33;3.20;;;;;;;11.81;44.84;100644.91;147793;1147;104614;-79
2021/04/24 10:37:31;;;;;;;7.70;4.20;;;;;;;11.80;44.32;100638.72;147778;1147;104547;-77
2021/04/24 10:40:44;;;;;;;7.08;3.92;;;;;;;11.81;41.06;100659.11;147588;1148;104556;-78
2021/04/24 10:43:59;;;;;;;5.40;3.50;;;;;;;11.65;42.90;100649.09;147718;1147;104802;-80
2021/04/24 10:47:03;;;;;;;5.73;3.50;;;;;;;11.42;41.21;100645.98;147759;1148;104474;-77
2021/04/24 10:50:08;;;;;;;5.25;3.00;;;;;;;11.35;43.74;100648.39;147710;1147;104585;-77
2021/04/24 10:53:23;;;;;;;4.10;2.83;;;;;;;11.61;42.32;100647.70;147791;1147;104536;-78
2021/04/24 10:56:31;;;;;;;4.45;2.90;;;;;;;11.74;44.25;100636.63;147684;1148;104572;-77
2021/04/24 10:59:34;;;;;;;5.67;3.60;;;;;;;11.71;41.93;100632.44;147753;1147;104612;-78
2021/04/24 11:02:42;;;;;;;4.45;2.75;;;;;;;11.64;38.80;100635.87;147753;1147;104476;-80
2021/04/24 11:05:48;;;;;;;5.45;3.17;;;;;;;11.64;41.83;100634.02;147600;1147;104610;-80
2021/04/24 11:09:11;;;;;;;5.33;2.80;;;;;;;11.55;40.09;100643.80;147535;1147;104572;-79
2021/04/24 11:12:17;;;;;;;6.03;3.63;;;;;;;11.59;41.29;100647.85;147814;1147;104569;-77
2021/04/24 11:15:22;;;;;;;5.92;3.50;;;;;;;11.71;39.89;100645.80;147731;1147;104524;-78
2021/04/24 11:18:25;;;;;;;6.67;4.03;;;;;;;11.70;41.41;100646.81;147505;1147;104451;-77
2021/04/24 11:21:30;;;;;;;8.13;4.87;;;;;;;11.84;40.47;100640.09;147726;1147;104582;-78
2021/04/24 11:24:37;;;;;;;8.28;4.87;;;;;;;11.79;42.94;100634.36;147310;1147;104580;-80
2021/04/24 11:28:06;;;;;;;8.03;5.00;;;;;;;11.77;43.60;100629.16;147612;1147;104572;-79
2021/04/24 11:31:09;;;;;;;6.67;4.20;;;;;;;12.05;41.68;100631.80;147772;1147;104470;-76
2021/04/24 11:34:24;;;;;;;6.95;3.50;;;;;;;12.04;40.18;100622.09;147471;1147;104473;-79
2021/04/24 11:37:35;;;;;;;5.80;3.07;;;;;;;12.01;40.92;100621.55;147682;1147;104566;-78
2021/04/24 11:40:39;;;;;;;4.03;2.92;;;;;;;11.87;38.37;100617.55;147690;1147;104496;-76
2021/04/24 11:43:42;;;;;;;4.90;3.10;;;;;;;11.71;38.04;100607.55;147756;1147;104508;-83
2021/04/24 11:46:48;;;;;;;6.03;4.30;;;;;;;11.44;40.87;100627.97;147999;1147;104458;-79
2021/04/24 11:49:52;;;;;;;7.75;4.12;;;;;;;11.37;39.76;100630.41;147312;1147;104474;-79
2021/04/24 11:52:57;;;;;;;6.17;3.40;;;;;;;11.26;41.09;100635.09;147648;1147;104575;-78
2021/04/24 11:56:00;;;;;;;5.22;3.22;;;;;;;11.05;38.06;100660.22;147865;1148;104454;-76
2021/04/24 11:59:04;;;;;;;6.20;2.75;;;;;;;10.86;40.72;100650.44;147643;1147;104569;-79
2021/04/24 12:02:18;;;;;;;6.17;3.33;;;;;;;10.99;42.33;100648.29;148009;1147;104950;-76
2021/04/24 12:05:22;;;;;;;6.17;3.00;;;;;;;11.25;41.09;100644.11;147706;1148;104565;-81
2021/04/24 12:08:25;;;;;;;6.40;3.30;;;;;;;11.44;41.36;100637.83;147422;1147;104556;-80
2021/04/24 12:11:28;;;;;;;5.47;3.15;;;;;;;11.62;41.21;100638.68;147444;1147;104569;-78
2021/04/24 12:14:31;;;;;;;5.97;3.20;;;;;;;11.79;40.68;100637.03;147689;1147;104446;-80
2021/04/24 12:17:36;;;;;;;5.60;3.63;;;;;;;11.89;40.97;100632.47;147900;1145;104523;-78
2021/04/24 12:20:42;;;;;;;5.58;3.17;;;;;;;12.06;39.87;100633.47;147763;1147;104496;-79
2021/04/24 12:23:45;;;;;;;10.03;3.98;;;;;;;12.14;39.80;100630.03;147777;1148;104615;-78
2021/04/24 12:26:49;;;;;;;10.18;3.98;;;;;;;12.17;40.23;100630.56;147834;1147;104451;-83
2021/04/24 12:29:53;;;;;;;7.03;2.95;;;;;;;12.25;40.10;100620.94;147683;1148;104560;-83
2021/04/24 12:33:05;;;;;;;5.83;3.33;;;;;;;12.39;39.58;100615.01;147946;1148;104495;-82
2021/04/24 12:36:09;;;;;;;10.13;2.85;;;;;;;12.12;37.02;100611.45;147965;1148;105039;-81
2021/04/24 12:39:18;;;;;;;4.80;2.90;;;;;;;12.06;38.03;100620.09;147764;1147;104635;-78
2021/04/24 12:42:21;;;;;;;7.00;3.33;;;;;;;12.14;39.06;100616.66;148155;1147;104566;-78
2021/04/24 12:45:25;;;;;;;5.53;3.25;;;;;;;12.07;38.24;100619.12;147893;1147;104476;-82
2021/04/24 12:48:34;;;;;;;3.87;2.80;;;;;;;11.79;37.45;100627.17;147991;1147;104949;-81
2021/04/24 12:51:38;;;;;;;4.35;2.80;;;;;;;11.57;38.99;100619.60;148155;1147;104568;-82
2021/04/24 12:54:41;;;;;;;36.10;24.75;;;;;;;11.68;39.95;100608.70;148075;1147;104609;-82
2021/04/24 12:57:52;;;;;;;12.37;6.47;;;;;;;11.90;38.75;100598.57;147849;1147;104471;-78
2021/04/24 13:00:56;;;;;;;4.93;3.20;;;;;;;11.90;37.59;100598.57;147758;1148;104560;-78
2021/04/24 13:03:59;;;;;;;5.93;2.60;;;;;;;11.74;36.40;100613.44;147513;1147;104477;-79
2021/04/24 13:07:02;;;;;;;5.05;2.50;;;;;;;11.47;38.13;100600.09;147419;1146;104566;-75
2021/04/24 13:10:17;;;;;;;9.23;3.90;;;;;;;11.35;37.25;100619.00;147611;1147;104567;-78
2021/04/24 13:13:20;;;;;;;5.85;2.83;;;;;;;11.29;37.82;100602.75;147712;1148;104565;-79
2021/04/24 13:16:33;;;;;;;5.42;2.90;;;;;;;11.25;37.09;100604.88;147655;1148;104479;-77
2021/04/24 13:19:52;;;;;;;4.08;3.10;;;;;;;11.33;38.50;100599.61;147763;1147;104566;-79
2021/04/24 13:22:55;;;;;;;4.37;2.67;;;;;;;11.33;36.19;100625.50;147775;1148;104566;-78
2021/04/24 13:25:58;;;;;;;4.62;2.55;;;;;;;11.07;36.92;100601.33;147978;1147;104564;-82
2021/04/24 13:29:17;;;;;;;6.25;3.47;;;;;;;10.93;37.59;100608.83;147785;1147;104563;-80
2021/04/24 13:32:20;;;;;;;9.25;5.67;;;;;;;10.88;37.63;100629.77;147733;1148;104566;-79
2021/04/24 13:35:40;;;;;;;7.50;4.12;;;;;;;10.73;37.62;100605.38;147571;1147;104566;-78
2021/04/24 13:38:43;;;;;;;25.95;8.73;;;;;;;10.67;38.36;100615.80;147673;1148;104474;-79
2021/04/24 13:41:46;;;;;;;21.07;8.15;;;;;;;10.63;39.02;100617.08;147593;1146;104554;-78
2021/04/24 13:44:50;;;;;;;8.75;3.72;;;;;;;10.55;38.44;100628.47;147355;1147;104566;-78
2021/04/24 13:48:07;;;;;;;24.90;15.13;;;;;;;10.46;39.58;100629.33;147640;1147;104470;-82
2021/04/24 13:51:10;;;;;;;18.23;11.20;;;;;;;10.60;39.32;100626.20;147654;1147;104976;-80
2021/04/24 13:54:13;;;;;;;28.27;14.65;;;;;;;10.70;40.01;100623.50;147796;1147;104601;-81
2021/04/24 13:57:18;;;;;;;25.60;14.58;;;;;;;10.89;40.39;100612.75;147897;1147;104553;-80
2021/04/24 14:00:22;;;;;;;19.93;11.60;;;;;;;11.11;40.09;100616.06;147693;1148;104436;-85
2021/04/24 14:03:25;;;;;;;13.93;8.68;;;;;;;11.10;41.21;100609.86;147997;1147;104484;-84